Time;durP1;ratioP1;P1;durP2;ratioP2;P2;SDS_P1;SDS_P2;PMS_P1;PMS_P2;Temp;Humidity;BMP_temperature;BMP_pressure;BME280_temperature;BME280_humidity;BME280_pressure;Samples;Min_cycle;Max_cycle;Signal;HPM_P1;HPM_P2
2022/10/10 00:00:42;;;;;;;5.68;3.10;;;;;;;;;;5014848;28;20066;-75
2022/10/10 00:03:09;;;;;;;5.30;3.10;;;;;;;;;;5014756;28;20046;-75
2022/10/10 00:05:36;;;;;;;5.80;3.03;;;;;;;;;;5014727;28;20022;-75
2022/10/10 00:08:03;;;;;;;6.78;3.60;;;;;;;;;;5014754;28;20070;-75
2022/10/10 00:10:29;;;;;;;5.10;3.00;;;;;;;;;;5014410;28;20419;-75
2022/10/10 00:12:55;;;;;;;7.43;3.50;;;;;;;;;;4996034;28;20465;-75
2022/10/10 00:15:21;;;;;;;7.60;3.10;;;;;;;;;;4994719;28;20101;-75
2022/10/10 00:17:47;;;;;;;5.43;2.85;;;;;;;;;;4994713;28;20088;-75
2022/10/10 00:20:14;;;;;;;6.65;3.17;;;;;;;;;;4993722;28;20081;-75
2022/10/10 00:22:40;;;;;;;6.75;3.67;;;;;;;;;;4994919;28;20027;-75
2022/10/10 00:25:07;;;;;;;15.55;3.50;;;;;;;;;;4995067;28;20030;-75
2022/10/10 00:27:33;;;;;;;8.32;3.20;;;;;;;;;;4993978;28;20114;-76
2022/10/10 00:29:59;;;;;;;7.82;3.90;;;;;;;;;;4994019;28;20125;-75
2022/10/10 00:32:26;;;;;;;9.77;4.18;;;;;;;;;;4994787;28;20022;-76
2022/10/10 00:34:52;;;;;;;6.40;3.58;;;;;;;;;;4993977;28;20470;-76
2022/10/10 00:37:18;;;;;;;9.32;3.67;;;;;;;;;;4994108;28;20107;-76
2022/10/10 00:39:44;;;;;;;10.00;3.30;;;;;;;;;;4993513;28;20022;-75
2022/10/10 00:42:11;;;;;;;9.02;3.60;;;;;;;;;;4994061;28;20093;-76
2022/10/10 00:44:39;;;;;;;9.10;3.90;;;;;;;;;;5025409;28;20115;-76
2022/10/10 00:47:05;;;;;;;8.45;3.53;;;;;;;;;;4993863;28;20030;-76
2022/10/10 00:49:31;;;;;;;6.57;3.67;;;;;;;;;;4992572;28;20034;-75
2022/10/10 00:51:59;;;;;;;7.38;3.45;;;;;;;;;;4993855;28;20030;-76
2022/10/10 00:54:25;;;;;;;7.15;3.45;;;;;;;;;;4993732;28;20065;-75
2022/10/10 00:56:56;;;;;;;5.70;3.15;;;;;;;;;;4994227;28;20049;-76
2022/10/10 00:59:22;;;;;;;5.43;3.30;;;;;;;;;;5025524;28;20482;-76
2022/10/10 01:01:49;;;;;;;7.72;3.50;;;;;;;;;;4994196;28;20405;-75
2022/10/10 01:04:33;;;;;;;6.63;3.30;;;;;;;;;;4994146;28;20022;-76
2022/10/10 01:06:59;;;;;;;8.30;4.38;;;;;;;;;;4993949;28;20106;-76
2022/10/10 01:09:26;;;;;;;5.55;3.40;;;;;;;;;;4994120;28;20026;-76
2022/10/10 01:11:57;;;;;;;6.25;3.20;;;;;;;;;;4994079;28;20080;-76
2022/10/10 01:14:23;;;;;;;7.78;3.75;;;;;;;;;;4993855;28;20057;-75
2022/10/10 01:16:57;;;;;;;5.78;3.13;;;;;;;;;;5025415;28;20473;-76
2022/10/10 01:19:23;;;;;;;5.13;3.08;;;;;;;;;;4994004;28;20026;-76
2022/10/10 01:21:55;;;;;;;10.10;3.20;;;;;;;;;;5001400;28;20022;-76
2022/10/10 01:24:55;;;;;;;7.82;3.75;;;;;;;;;;5013586;28;20477;-76
2022/10/10 01:27:25;;;;;;;8.15;3.83;;;;;;;;;;5012087;28;20533;-76
2022/10/10 01:30:03;;;;;;;8.55;3.70;;;;;;;;;;5013196;28;20041;-75
2022/10/10 01:32:34;;;;;;;5.43;3.75;;;;;;;;;;5013427;28;20413;-75
2022/10/10 01:35:03;;;;;;;11.60;3.90;;;;;;;;;;5013326;28;20057;-76
2022/10/10 01:37:29;;;;;;;9.75;3.53;;;;;;;;;;5013371;28;20014;-76
2022/10/10 01:40:01;;;;;;;9.98;3.50;;;;;;;;;;5013291;28;20041;-76
2022/10/10 01:42:27;;;;;;;12.45;3.70;;;;;;;;;;5013267;28;20052;-76
2022/10/10 01:44:53;;;;;;;6.72;4.03;;;;;;;;;;5013153;28;20034;-76
2022/10/10 01:47:20;;;;;;;7.13;3.85;;;;;;;;;;5013373;28;20026;-76
2022/10/10 01:49:48;;;;;;;9.07;3.78;;;;;;;;;;5012855;28;20057;-76
2022/10/10 01:52:14;;;;;;;7.40;3.70;;;;;;;;;;5012368;28;20026;-76
2022/10/10 01:55:02;;;;;;;11.40;3.72;;;;;;;;;;5012984;28;20018;-76
2022/10/10 01:57:37;;;;;;;9.13;3.78;;;;;;;;;;5012779;28;20373;-76
2022/10/10 02:00:08;;;;;;;6.47;3.85;;;;;;;;;;5011455;28;20107;-76
2022/10/10 02:02:34;;;;;;;5.05;3.70;;;;;;;;;;5012798;28;20207;-76
2022/10/10 02:05:03;;;;;;;8.05;4.40;;;;;;;;;;5012672;28;20070;-76
2022/10/10 02:07:41;;;;;;;11.35;5.07;;;;;;;;;;5012766;28;20053;-76
2022/10/10 02:10:08;;;;;;;6.30;3.92;;;;;;;;;;5012496;28;20021;-76
2022/10/10 02:12:35;;;;;;;6.25;4.03;;;;;;;;;;4993723;28;20022;-76
2022/10/10 02:15:06;;;;;;;9.00;4.20;;;;;;;;;;4993020;28;20163;-76
2022/10/10 02:17:34;;;;;;;17.92;4.22;;;;;;;;;;4992965;28;20026;-76
2022/10/10 02:20:00;;;;;;;6.95;3.85;;;;;;;;;;4993041;28;20470;-76
2022/10/10 02:22:27;;;;;;;9.73;4.30;;;;;;;;;;4991681;28;20488;-76
2022/10/10 02:24:53;;;;;;;8.45;3.90;;;;;;;;;;4993076;28;20037;-76
2022/10/10 02:27:23;;;;;;;9.52;4.13;;;;;;;;;;4992857;28;20100;-76
2022/10/10 02:29:50;;;;;;;13.60;4.78;;;;;;;;;;4991243;28;20141;-75
2022/10/10 02:32:19;;;;;;;8.13;3.80;;;;;;;;;;4998023;28;20034;-76
2022/10/10 02:34:47;;;;;;;7.47;4.20;;;;;;;;;;5011144;28;20052;-76
2022/10/10 02:37:14;;;;;;;10.55;4.38;;;;;;;;;;5012502;28;20399;-76
2022/10/10 02:39:42;;;;;;;9.85;4.38;;;;;;;;;;5011327;28;20072;-76
2022/10/10 02:42:09;;;;;;;10.90;4.22;;;;;;;;;;5012299;28;20041;-76
2022/10/10 02:44:36;;;;;;;9.40;4.57;;;;;;;;;;5012339;28;20057;-76
2022/10/10 02:47:03;;;;;;;6.50;4.25;;;;;;;;;;5012182;28;20037;-76
2022/10/10 02:49:30;;;;;;;9.70;5.25;;;;;;;;;;5010828;28;20034;-76
2022/10/10 02:51:56;;;;;;;7.60;4.20;;;;;;;;;;5012212;28;20073;-76
2022/10/10 02:54:22;;;;;;;15.20;5.20;;;;;;;;;;5010978;28;20087;-76
2022/10/10 02:56:48;;;;;;;10.23;4.43;;;;;;;;;;5012276;28;20037;-76
2022/10/10 02:59:14;;;;;;;10.65;5.00;;;;;;;;;;5012086;28;20539;-76
2022/10/10 03:01:41;;;;;;;12.60;5.10;;;;;;;;;;5012265;28;20045;-76
2022/10/10 03:04:07;;;;;;;8.18;5.18;;;;;;;;;;5014506;28;20129;-76
2022/10/10 03:06:33;;;;;;;7.93;4.25;;;;;;;;;;5015975;28;20440;-76
2022/10/10 03:08:59;;;;;;;10.57;4.50;;;;;;;;;;5016161;28;20030;-76
2022/10/10 03:11:25;;;;;;;13.80;5.25;;;;;;;;;;5015844;28;20042;-76
2022/10/10 03:13:51;;;;;;;9.18;4.47;;;;;;;;;;5016058;28;20028;-76
2022/10/10 03:16:17;;;;;;;9.35;4.85;;;;;;;;;;5015686;28;20065;-76
2022/10/10 03:18:43;;;;;;;12.02;5.35;;;;;;;;;;5015727;28;20030;-76
2022/10/10 03:21:09;;;;;;;11.15;4.75;;;;;;;;;;5014616;28;20116;-76
2022/10/10 03:23:35;;;;;;;11.30;5.07;;;;;;;;;;5016006;28;20041;-76
2022/10/10 03:26:02;;;;;;;10.05;5.30;;;;;;;;;;5015719;28;20038;-76
2022/10/10 03:28:28;;;;;;;7.68;4.78;;;;;;;;;;5014222;28;20046;-76
2022/10/10 03:30:54;;;;;;;17.98;6.05;;;;;;;;;;5015593;28;20398;-76
2022/10/10 03:33:20;;;;;;;14.10;4.93;;;;;;;;;;5014066;28;20030;-76
2022/10/10 03:35:47;;;;;;;9.48;4.72;;;;;;;;;;5014257;28;20036;-76
2022/10/10 03:38:13;;;;;;;11.45;5.93;;;;;;;;;;5015335;28;20041;-76
2022/10/10 03:40:40;;;;;;;9.77;5.00;;;;;;;;;;5015246;28;20049;-76
2022/10/10 03:43:07;;;;;;;10.20;4.75;;;;;;;;;;5015224;28;20037;-76
2022/10/10 03:45:33;;;;;;;8.73;5.10;;;;;;;;;;5015036;28;20034;-76
2022/10/10 03:47:59;;;;;;;10.25;4.63;;;;;;;;;;5015186;28;20380;-76
2022/10/10 03:50:25;;;;;;;8.13;4.63;;;;;;;;;;5015098;28;20034;-76
2022/10/10 03:52:51;;;;;;;9.88;5.20;;;;;;;;;;5015502;28;20033;-76
2022/10/10 03:55:18;;;;;;;9.93;5.07;;;;;;;;;;5014089;28;20033;-76
2022/10/10 03:57:44;;;;;;;7.85;4.90;;;;;;;;;;5015137;28;20022;-76
2022/10/10 04:00:10;;;;;;;11.35;4.97;;;;;;;;;;5015322;28;20212;-75
2022/10/10 04:02:36;;;;;;;10.85;5.18;;;;;;;;;;5014955;28;20030;-76
2022/10/10 04:05:02;;;;;;;11.00;5.35;;;;;;;;;;5014895;28;20038;-76
2022/10/10 04:07:28;;;;;;;9.80;5.30;;;;;;;;;;5014809;28;20041;-76
2022/10/10 04:09:55;;;;;;;10.63;4.82;;;;;;;;;;5014741;28;20408;-76
2022/10/10 04:12:21;;;;;;;9.65;5.00;;;;;;;;;;4997046;28;20049;-76
2022/10/10 04:14:47;;;;;;;11.05;5.13;;;;;;;;;;4992863;28;20474;-76
2022/10/10 04:17:13;;;;;;;14.73;5.05;;;;;;;;;;4993519;28;20552;-76
2022/10/10 04:19:39;;;;;;;13.88;5.70;;;;;;;;;;4995002;28;20026;-76
2022/10/10 04:22:05;;;;;;;13.50;5.47;;;;;;;;;;4995091;28;20062;-76
2022/10/10 04:24:31;;;;;;;10.07;5.32;;;;;;;;;;4995023;28;20038;-76
2022/10/10 04:26:57;;;;;;;8.25;5.63;;;;;;;;;;4995199;28;20672;-75
2022/10/10 04:29:23;;;;;;;12.40;6.05;;;;;;;;;;4994649;28;20049;-76
2022/10/10 04:31:49;;;;;;;11.27;5.28;;;;;;;;;;4996712;28;20085;-76
2022/10/10 04:34:15;;;;;;;12.40;5.53;;;;;;;;;;5014413;28;20022;-76
2022/10/10 04:36:41;;;;;;;11.23;5.70;;;;;;;;;;5014523;28;20029;-76
2022/10/10 04:39:08;;;;;;;12.23;6.25;;;;;;;;;;5014471;28;20356;-76
2022/10/10 04:41:34;;;;;;;12.52;6.47;;;;;;;;;;5014360;28;20038;-75
2022/10/10 04:44:00;;;;;;;10.60;5.53;;;;;;;;;;5014240;28;20034;-75
2022/10/10 04:46:26;;;;;;;11.82;5.80;;;;;;;;;;5012837;28;20423;-76
2022/10/10 04:48:52;;;;;;;10.15;5.40;;;;;;;;;;5014084;28;20029;-76
2022/10/10 04:51:18;;;;;;;9.18;5.30;;;;;;;;;;5014075;28;20084;-75
2022/10/10 04:53:44;;;;;;;8.13;5.75;;;;;;;;;;5013933;28;20469;-75
2022/10/10 04:56:10;;;;;;;13.23;6.15;;;;;;;;;;5014156;28;20022;-76
2022/10/10 04:58:36;;;;;;;12.23;6.32;;;;;;;;;;5014059;28;20033;-76
2022/10/10 05:01:03;;;;;;;17.10;6.80;;;;;;;;;;5013888;28;20238;-75
2022/10/10 05:03:29;;;;;;;9.25;5.82;;;;;;;;;;5013970;28;20030;-76
2022/10/10 05:05:55;;;;;;;9.43;5.50;;;;;;;;;;4995111;28;20461;-76
2022/10/10 05:08:21;;;;;;;12.63;6.20;;;;;;;;;;5025340;28;20035;-76
2022/10/10 05:10:48;;;;;;;11.35;6.60;;;;;;;;;;4993901;28;20059;-76
2022/10/10 05:13:15;;;;;;;11.60;6.95;;;;;;;;;;4993894;28;20370;-76
2022/10/10 05:15:42;;;;;;;11.73;6.20;;;;;;;;;;4993734;28;20028;-75
2022/10/10 05:18:08;;;;;;;12.00;6.28;;;;;;;;;;4993858;28;20377;-75
2022/10/10 05:20:35;;;;;;;14.43;6.10;;;;;;;;;;4993654;28;20430;-76
2022/10/10 05:23:01;;;;;;;13.95;5.90;;;;;;;;;;5011685;28;20041;-76
2022/10/10 05:25:27;;;;;;;10.25;5.93;;;;;;;;;;5013456;28;20025;-76
2022/10/10 05:27:53;;;;;;;10.90;6.22;;;;;;;;;;5013316;28;20117;-76
2022/10/10 05:30:20;;;;;;;12.15;6.75;;;;;;;;;;5012861;28;20438;-76
2022/10/10 05:32:46;;;;;;;15.05;7.57;;;;;;;;;;5022057;28;20021;-76
2022/10/10 05:35:12;;;;;;;12.60;6.60;;;;;;;;;;5033029;28;20143;-76
2022/10/10 05:37:38;;;;;;;12.00;6.75;;;;;;;;;;5031431;28;20334;-76
2022/10/10 05:40:04;;;;;;;11.95;6.50;;;;;;;;;;5032763;28;20468;-75
2022/10/10 05:42:30;;;;;;;11.05;6.30;;;;;;;;;;5032590;28;20102;-76
2022/10/10 05:44:56;;;;;;;14.63;6.32;;;;;;;;;;5032525;28;20467;-75
2022/10/10 05:47:23;;;;;;;13.40;6.75;;;;;;;;;;5013544;28;20452;-76
2022/10/10 05:49:49;;;;;;;12.68;6.32;;;;;;;;;;5012602;28;20084;-75
2022/10/10 05:52:16;;;;;;;17.33;7.35;;;;;;;;;;4992795;28;20046;-75
2022/10/10 05:54:42;;;;;;;13.45;6.45;;;;;;;;;;5008522;28;20064;-75
2022/10/10 05:57:08;;;;;;;12.48;6.97;;;;;;;;;;5011238;28;20433;-75
2022/10/10 05:59:34;;;;;;;14.30;6.60;;;;;;;;;;5012864;28;20495;-81
2022/10/10 06:02:00;;;;;;;14.25;6.55;;;;;;;;;;5011975;28;20032;-79
2022/10/10 06:04:26;;;;;;;14.82;6.43;;;;;;;;;;5006031;28;20053;-78
2022/10/10 06:06:52;;;;;;;15.35;6.82;;;;;;;;;;4991796;28;20030;-78
2022/10/10 06:09:18;;;;;;;13.90;7.55;;;;;;;;;;5010821;28;20464;-76
2022/10/10 06:11:44;;;;;;;13.68;7.22;;;;;;;;;;5001934;28;20471;-76
2022/10/10 06:14:10;;;;;;;13.75;6.50;;;;;;;;;;4993099;28;20372;-76
2022/10/10 06:16:38;;;;;;;13.23;6.88;;;;;;;;;;4991317;28;20027;-76
2022/10/10 06:19:04;;;;;;;13.25;6.68;;;;;;;;;;4999353;28;20026;-76
2022/10/10 06:21:30;;;;;;;14.68;7.18;;;;;;;;;;5012190;28;20033;-77
2022/10/10 06:23:56;;;;;;;14.40;7.30;;;;;;;;;;5011896;28;20026;-76
2022/10/10 06:26:22;;;;;;;18.02;7.18;;;;;;;;;;5012094;28;20125;-76
2022/10/10 06:28:51;;;;;;;15.23;7.32;;;;;;;;;;5012044;28;20148;-78
2022/10/10 06:31:17;;;;;;;12.13;6.97;;;;;;;;;;5012090;28;20052;-78
2022/10/10 06:33:44;;;;;;;14.50;7.03;;;;;;;;;;5002549;28;20037;-78
2022/10/10 06:36:11;;;;;;;12.90;7.15;;;;;;;;;;5001368;28;20041;-78
2022/10/10 06:38:37;;;;;;;13.32;7.13;;;;;;;;;;5007636;28;20032;-74
2022/10/10 06:41:04;;;;;;;10.50;7.03;;;;;;;;;;5006104;28;20046;-74
2022/10/10 06:43:30;;;;;;;17.70;9.43;;;;;;;;;;4998984;28;20113;-75
2022/10/10 06:45:57;;;;;;;28.42;7.88;;;;;;;;;;5001348;28;20045;-74
2022/10/10 06:48:23;;;;;;;20.80;7.78;;;;;;;;;;4999181;28;20030;-74
2022/10/10 06:51:03;;;;;;;13.13;7.47;;;;;;;;;;5006648;28;20038;-75
2022/10/10 06:53:29;;;;;;;14.25;7.63;;;;;;;;;;5004301;28;20484;-74
2022/10/10 06:55:56;;;;;;;14.77;7.65;;;;;;;;;;5001778;28;20487;-74
2022/10/10 06:58:22;;;;;;;13.27;7.03;;;;;;;;;;5009203;28;20030;-74
2022/10/10 07:00:52;;;;;;;11.63;6.78;;;;;;;;;;5003878;28;20113;-75
2022/10/10 07:03:19;;;;;;;15.98;7.00;;;;;;;;;;5014599;28;20124;-74
2022/10/10 07:05:48;;;;;;;13.10;7.18;;;;;;;;;;5006183;28;20380;-75
2022/10/10 07:08:14;;;;;;;14.75;7.22;;;;;;;;;;5010298;28;20022;-75
2022/10/10 07:10:40;;;;;;;15.55;8.10;;;;;;;;;;5008053;28;20034;-74
2022/10/10 07:13:06;;;;;;;12.50;7.28;;;;;;;;;;5001037;28;20045;-75
2022/10/10 07:15:33;;;;;;;14.43;6.88;;;;;;;;;;5008709;28;20029;-75
2022/10/10 07:17:59;;;;;;;18.63;7.15;;;;;;;;;;5001649;28;20029;-75
2022/10/10 07:20:26;;;;;;;15.50;7.03;;;;;;;;;;5000227;28;20034;-75
2022/10/10 07:22:52;;;;;;;12.38;6.60;;;;;;;;;;4991589;28;20034;-74
2022/10/10 07:25:18;;;;;;;15.85;7.60;;;;;;;;;;5001101;28;20076;-75
2022/10/10 07:27:45;;;;;;;15.65;7.07;;;;;;;;;;5011209;28;20149;-74
2022/10/10 07:30:11;;;;;;;12.45;6.72;;;;;;;;;;5010397;28;20069;-75
2022/10/10 07:32:37;;;;;;;11.45;7.22;;;;;;;;;;5005092;28;20069;-75
2022/10/10 07:35:03;;;;;;;17.25;7.13;;;;;;;;;;5023513;28;20046;-75
2022/10/10 07:37:30;;;;;;;12.57;7.25;;;;;;;;;;5010876;28;20073;-75
2022/10/10 07:39:56;;;;;;;13.75;6.65;;;;;;;;;;5011010;28;20034;-74
2022/10/10 07:42:22;;;;;;;21.40;6.53;;;;;;;;;;5011245;28;20057;-78
2022/10/10 07:44:48;;;;;;;16.30;6.75;;;;;;;;;;5011132;28;20121;-76
2022/10/10 07:47:14;;;;;;;18.25;6.88;;;;;;;;;;5011064;28;20022;-75
2022/10/10 07:49:40;;;;;;;13.95;6.65;;;;;;;;;;5012354;28;20022;-75
2022/10/10 07:52:06;;;;;;;15.63;5.82;;;;;;;;;;5014406;28;20030;-73
2022/10/10 07:54:32;;;;;;;11.57;6.10;;;;;;;;;;5014389;28;20025;-75
2022/10/10 07:56:58;;;;;;;11.00;5.82;;;;;;;;;;5013899;28;20021;-74
2022/10/10 07:59:24;;;;;;;12.95;6.25;;;;;;;;;;5013941;28;20076;-75
2022/10/10 08:01:51;;;;;;;11.68;6.18;;;;;;;;;;5014332;28;20040;-75
2022/10/10 08:04:17;;;;;;;15.20;6.30;;;;;;;;;;5008947;28;20030;-75
2022/10/10 08:06:43;;;;;;;11.82;6.10;;;;;;;;;;4994727;28;20026;-74
2022/10/10 08:09:09;;;;;;;12.57;7.18;;;;;;;;;;4994584;28;20708;-75
2022/10/10 08:11:35;;;;;;;17.27;6.03;;;;;;;;;;4993975;28;20034;-74
2022/10/10 08:14:02;;;;;;;10.75;6.07;;;;;;;;;;4994310;28;20053;-75
2022/10/10 08:16:28;;;;;;;15.52;6.88;;;;;;;;;;4994423;28;20372;-75
2022/10/10 08:18:54;;;;;;;15.55;6.40;;;;;;;;;;4994277;28;20031;-75
2022/10/10 08:21:20;;;;;;;16.70;6.47;;;;;;;;;;4994462;28;20038;-75
2022/10/10 08:23:46;;;;;;;13.93;6.65;;;;;;;;;;4994517;28;20026;-75
2022/10/10 08:26:13;;;;;;;11.65;6.00;;;;;;;;;;4994475;28;20034;-74
2022/10/10 08:28:40;;;;;;;14.23;6.43;;;;;;;;;;4994138;28;20046;-75
2022/10/10 08:31:06;;;;;;;14.80;6.93;;;;;;;;;;4994142;28;20031;-74
2022/10/10 08:33:33;;;;;;;18.17;7.82;;;;;;;;;;4999118;28;20035;-74
2022/10/10 08:36:00;;;;;;;15.63;6.93;;;;;;;;;;5013528;28;20022;-74
2022/10/10 08:38:26;;;;;;;14.77;6.15;;;;;;;;;;5006196;28;20011;-74
2022/10/10 08:40:56;;;;;;;11.27;6.72;;;;;;;;;;4993992;28;20096;-74
2022/10/10 08:43:26;;;;;;;11.55;6.25;;;;;;;;;;4994040;28;20030;-74
2022/10/10 08:45:54;;;;;;;16.45;7.40;;;;;;;;;;4993962;28;20487;-74
2022/10/10 08:48:23;;;;;;;14.07;6.28;;;;;;;;;;4993724;28;20130;-74
2022/10/10 08:50:53;;;;;;;12.48;6.10;;;;;;;;;;4993607;28;20029;-74
2022/10/10 08:53:42;;;;;;;13.95;6.20;;;;;;;;;;4993703;28;20101;-75
2022/10/10 08:56:12;;;;;;;13.50;6.38;;;;;;;;;;4995684;28;20034;-74
2022/10/10 08:58:47;;;;;;;22.10;7.75;;;;;;;;;;5008481;28;20033;-75
2022/10/10 09:01:13;;;;;;;14.63;6.78;;;;;;;;;;4993359;28;20045;-75
2022/10/10 09:03:42;;;;;;;14.68;6.43;;;;;;;;;;4993373;28;20029;-74
2022/10/10 09:06:27;;;;;;;14.75;6.32;;;;;;;;;;5011526;28;20022;-75
2022/10/10 09:08:59;;;;;;;14.18;6.70;;;;;;;;;;5013149;28;20041;-74
2022/10/10 09:11:31;;;;;;;12.20;6.70;;;;;;;;;;5012793;28;20033;-74
2022/10/10 09:14:11;;;;;;;12.23;5.88;;;;;;;;;;5011540;28;20109;-75
2022/10/10 09:16:46;;;;;;;14.32;6.32;;;;;;;;;;5012926;28;20100;-75
2022/10/10 09:19:39;;;;;;;11.88;6.10;;;;;;;;;;5012871;28;20069;-75
2022/10/10 09:22:10;;;;;;;11.63;5.95;;;;;;;;;;5012736;28;20026;-73
2022/10/10 09:24:40;;;;;;;11.05;6.10;;;;;;;;;;5012728;28;20468;-73
2022/10/10 09:27:10;;;;;;;12.90;5.78;;;;;;;;;;5008832;28;20372;-73
2022/10/10 09:29:48;;;;;;;11.85;6.20;;;;;;;;;;4991240;28;20050;-72
2022/10/10 09:32:18;;;;;;;10.05;5.97;;;;;;;;;;4996075;28;20045;-73
2022/10/10 09:34:53;;;;;;;16.15;5.68;;;;;;;;;;5002438;28;20025;-73
2022/10/10 09:37:20;;;;;;;14.98;6.00;;;;;;;;;;5011313;28;20018;-73
2022/10/10 09:40:01;;;;;;;14.60;6.85;;;;;;;;;;5012725;28;20029;-74
2022/10/10 09:42:35;;;;;;;12.18;6.65;;;;;;;;;;5011899;28;20018;-73
2022/10/10 09:45:01;;;;;;;11.52;5.55;;;;;;;;;;5011837;28;20088;-73
2022/10/10 09:47:27;;;;;;;9.40;5.97;;;;;;;;;;5012628;28;20032;-74
2022/10/10 09:49:54;;;;;;;10.60;6.00;;;;;;;;;;5001462;28;20037;-74
2022/10/10 09:52:30;;;;;;;11.85;6.28;;;;;;;;;;4998012;28;20034;-74
2022/10/10 09:55:06;;;;;;;17.92;5.80;;;;;;;;;;5006749;28;20118;-75
2022/10/10 09:57:35;;;;;;;10.70;6.28;;;;;;;;;;5001728;28;20808;-74
2022/10/10 10:00:13;;;;;;;17.05;6.47;;;;;;;;;;5003531;28;20508;-74
2022/10/10 10:02:39;;;;;;;12.82;5.88;;;;;;;;;;5003144;28;20032;-74
2022/10/10 10:05:17;;;;;;;15.25;5.97;;;;;;;;;;5010338;28;20042;-74
2022/10/10 10:07:47;;;;;;;16.48;5.68;;;;;;;;;;5010750;28;20038;-75
2022/10/10 10:10:16;;;;;;;13.57;5.55;;;;;;;;;;5010695;28;20037;-75
2022/10/10 10:12:43;;;;;;;14.90;5.93;;;;;;;;;;4991292;28;20026;-75
2022/10/10 10:15:38;;;;;;;12.98;6.05;;;;;;;;;;4991620;28;20015;-74
2022/10/10 10:18:18;;;;;;;12.48;5.43;;;;;;;;;;4995327;28;20034;-74
2022/10/10 10:20:45;;;;;;;10.32;5.85;;;;;;;;;;4991051;28;20069;-75
2022/10/10 10:23:22;;;;;;;10.55;5.70;;;;;;;;;;4992683;28;20030;-74
2022/10/10 10:25:56;;;;;;;12.93;6.25;;;;;;;;;;4992950;28;20381;-74
2022/10/10 10:28:22;;;;;;;11.20;5.15;;;;;;;;;;4990874;28;20451;-75
2022/10/10 10:30:49;;;;;;;9.70;5.13;;;;;;;;;;4991100;28;20029;-74
2022/10/10 10:33:32;;;;;;;11.60;5.63;;;;;;;;;;5008166;28;20069;-75
2022/10/10 10:36:00;;;;;;;14.38;5.63;;;;;;;;;;5011366;28;20041;-75
2022/10/10 10:38:35;;;;;;;13.98;6.60;;;;;;;;;;5010569;28;20056;-75
2022/10/10 10:41:09;;;;;;;12.23;5.30;;;;;;;;;;5010456;28;20022;-74
2022/10/10 10:43:53;;;;;;;13.90;5.97;;;;;;;;;;5010032;28;20030;-74
2022/10/10 10:46:26;;;;;;;15.95;5.97;;;;;;;;;;5010962;28;20033;-75
2022/10/10 10:49:16;;;;;;;10.27;5.43;;;;;;;;;;5010652;28;20468;-74
2022/10/10 10:51:45;;;;;;;12.02;5.55;;;;;;;;;;5001191;28;20457;-75
2022/10/10 10:54:37;;;;;;;21.98;5.75;;;;;;;;;;5011337;28;20064;-75
2022/10/10 10:57:18;;;;;;;12.85;5.30;;;;;;;;;;5001795;28;20104;-75
2022/10/10 11:00:01;;;;;;;12.43;5.22;;;;;;;;;;5010160;28;20041;-75
2022/10/10 11:02:42;;;;;;;17.48;5.93;;;;;;;;;;5011634;28;20037;-74
2022/10/10 11:05:15;;;;;;;12.65;5.60;;;;;;;;;;5008119;28;20057;-74
2022/10/10 11:07:54;;;;;;;9.98;5.25;;;;;;;;;;5006874;28;20026;-74
2022/10/10 11:10:25;;;;;;;13.45;5.75;;;;;;;;;;5008828;28;20022;-75
2022/10/10 11:13:01;;;;;;;15.55;5.60;;;;;;;;;;5005836;28;20026;-74
2022/10/10 11:15:29;;;;;;;11.95;5.00;;;;;;;;;;5005848;28;20045;-74
2022/10/10 11:18:00;;;;;;;7.90;5.05;;;;;;;;;;5004489;28;20030;-74
2022/10/10 11:20:38;;;;;;;13.90;5.32;;;;;;;;;;5013715;28;20388;-75
2022/10/10 11:23:12;;;;;;;12.95;5.40;;;;;;;;;;5006148;28;20045;-75
2022/10/10 11:25:46;;;;;;;14.45;5.57;;;;;;;;;;5012014;28;20026;-74
2022/10/10 11:28:28;;;;;;;13.65;4.97;;;;;;;;;;5013933;28;20112;-74
2022/10/10 11:30:57;;;;;;;10.40;4.93;;;;;;;;;;5014138;28;20050;-74
2022/10/10 11:33:29;;;;;;;11.68;4.90;;;;;;;;;;5013900;28;20542;-75
2022/10/10 11:35:59;;;;;;;15.20;5.00;;;;;;;;;;5011716;28;20044;-75
2022/10/10 11:38:38;;;;;;;9.32;4.50;;;;;;;;;;5014216;28;20460;-75
2022/10/10 11:41:15;;;;;;;14.60;5.28;;;;;;;;;;5010661;28;20395;-75
2022/10/10 11:44:00;;;;;;;11.10;5.35;;;;;;;;;;5011694;28;20029;-75
2022/10/10 11:46:26;;;;;;;11.80;5.28;;;;;;;;;;5014025;28;20080;-74
2022/10/10 11:48:57;;;;;;;16.30;5.18;;;;;;;;;;5014158;28;20136;-75
2022/10/10 11:51:42;;;;;;;13.63;5.00;;;;;;;;;;5012150;28;20878;-75
2022/10/10 11:54:15;;;;;;;11.25;5.28;;;;;;;;;;5014007;28;20045;-75
2022/10/10 11:56:43;;;;;;;11.38;4.93;;;;;;;;;;5013916;28;20026;-74
2022/10/10 11:59:20;;;;;;;10.05;5.25;;;;;;;;;;5013673;28;20072;-75
2022/10/10 12:01:48;;;;;;;9.57;4.70;;;;;;;;;;5013526;28;20029;-75
2022/10/10 12:04:14;;;;;;;13.18;4.50;;;;;;;;;;5013478;28;20021;-75
2022/10/10 12:06:46;;;;;;;12.52;4.78;;;;;;;;;;5011612;28;20133;-76
2022/10/10 12:09:21;;;;;;;10.60;5.07;;;;;;;;;;5012366;28;20439;-75
2022/10/10 12:11:51;;;;;;;12.32;5.57;;;;;;;;;;5012566;28;20452;-74
2022/10/10 12:14:19;;;;;;;14.30;4.93;;;;;;;;;;5013190;28;20097;-75
2022/10/10 12:16:45;;;;;;;10.70;5.43;;;;;;;;;;5013358;28;20025;-74
2022/10/10 12:19:14;;;;;;;15.57;6.25;;;;;;;;;;5013215;28;20018;-75
2022/10/10 12:22:01;;;;;;;12.40;5.68;;;;;;;;;;5009137;28;20033;-74
2022/10/10 12:24:31;;;;;;;16.45;5.45;;;;;;;;;;5013344;28;20032;-74
2022/10/10 12:26:57;;;;;;;14.85;5.55;;;;;;;;;;5013036;28;20468;-74
2022/10/10 12:29:42;;;;;;;18.55;5.93;;;;;;;;;;5013327;28;20054;-75
2022/10/10 12:32:14;;;;;;;22.65;6.30;;;;;;;;;;5009237;28;20030;-75
2022/10/10 12:34:40;;;;;;;20.02;6.63;;;;;;;;;;5013313;28;20026;-75
2022/10/10 12:37:20;;;;;;;19.83;7.18;;;;;;;;;;5013800;28;20111;-75
2022/10/10 12:40:05;;;;;;;17.25;7.03;;;;;;;;;;5011015;28;20021;-76
2022/10/10 12:42:37;;;;;;;22.83;7.18;;;;;;;;;;5012031;28;20048;-75
2022/10/10 12:45:03;;;;;;;16.92;7.68;;;;;;;;;;5013196;28;20034;-76
2022/10/10 12:47:31;;;;;;;18.10;6.68;;;;;;;;;;5013502;28;20084;-75
2022/10/10 12:49:59;;;;;;;12.63;6.55;;;;;;;;;;5013765;28;20080;-75
2022/10/10 12:52:31;;;;;;;16.70;7.13;;;;;;;;;;5013691;28;20567;-75
2022/10/10 12:54:57;;;;;;;;;;;;;;;;;;5014260;28;20472;-75
2022/10/10 12:57:32;;;;;;;14.68;7.53;;;;;;;;;;5013590;28;19952;-75
2022/10/10 13:00:04;;;;;;;13.45;7.32;;;;;;;;;;5012263;28;20107;-75
2022/10/10 13:02:30;;;;;;;15.30;7.45;;;;;;;;;;5013454;28;20033;-75
2022/10/10 13:04:58;;;;;;;15.63;8.32;;;;;;;;;;5012401;28;20041;-78
2022/10/10 13:07:24;;;;;;;21.35;8.50;;;;;;;;;;5013950;28;20152;-78
2022/10/10 13:09:51;;;;;;;19.65;8.60;;;;;;;;;;5011817;28;20059;-75
2022/10/10 13:12:26;;;;;;;19.00;8.80;;;;;;;;;;5013399;28;20029;-75
2022/10/10 13:14:52;;;;;;;20.95;9.05;;;;;;;;;;5013930;28;20121;-75
2022/10/10 13:17:18;;;;;;;22.55;10.00;;;;;;;;;;5012360;28;20033;-75
2022/10/10 13:19:44;;;;;;;19.52;9.43;;;;;;;;;;5021157;28;20021;-76
2022/10/10 13:22:10;;;;;;;18.48;10.63;;;;;;;;;;5014301;28;20085;-75
2022/10/10 13:24:36;;;;;;;21.92;10.38;;;;;;;;;;4994746;28;20041;-75
2022/10/10 13:27:03;;;;;;;24.77;9.98;;;;;;;;;;5002916;28;20061;-75
2022/10/10 13:29:30;;;;;;;24.02;9.77;;;;;;;;;;5006969;28;20062;-75
2022/10/10 13:32:01;;;;;;;21.67;11.20;;;;;;;;;;5008338;28;20033;-75
2022/10/10 13:34:29;;;;;;;19.65;10.05;;;;;;;;;;5019986;28;20049;-75
2022/10/10 13:36:56;;;;;;;22.67;10.43;;;;;;;;;;5014380;28;20137;-75
2022/10/10 13:39:22;;;;;;;19.20;10.02;;;;;;;;;;4988729;28;20046;-75
2022/10/10 13:41:48;;;;;;;20.13;10.77;;;;;;;;;;4989623;28;20034;-75
2022/10/10 13:44:20;;;;;;;21.13;10.27;;;;;;;;;;5014559;28;20054;-75
2022/10/10 13:46:47;;;;;;;24.10;10.38;;;;;;;;;;5013070;28;20639;-75
2022/10/10 13:49:33;;;;;;;21.17;10.68;;;;;;;;;;5029178;28;20425;-75
2022/10/10 13:52:01;;;;;;;27.02;10.98;;;;;;;;;;5011200;28;20073;-75
2022/10/10 13:54:46;;;;;;;18.75;9.82;;;;;;;;;;5012124;28;20026;-75
2022/10/10 13:57:23;;;;;;;20.67;10.57;;;;;;;;;;5001296;28;20376;-75
2022/10/10 13:59:58;;;;;;;26.88;10.27;;;;;;;;;;4994994;28;20031;-75
2022/10/10 14:02:29;;;;;;;23.67;9.95;;;;;;;;;;4983266;28;20110;-75
2022/10/10 14:04:55;;;;;;;21.83;10.98;;;;;;;;;;4983365;28;20696;-75
2022/10/10 14:07:27;;;;;;;23.40;10.95;;;;;;;;;;4993078;28;20074;-75
2022/10/10 14:10:08;;;;;;;18.05;10.10;;;;;;;;;;4970218;28;20039;-75
2022/10/10 14:12:36;;;;;;;22.33;10.55;;;;;;;;;;4971647;28;20027;-75
2022/10/10 14:15:03;;;;;;;17.75;8.18;;;;;;;;;;4972446;28;20033;-76
2022/10/10 14:17:30;;;;;;;9.50;5.93;;;;;;;;;;4986957;28;20033;-75
2022/10/10 14:19:56;;;;;;;4.38;2.53;;;;;;;;;;4992095;28;20031;-76
2022/10/10 14:22:22;;;;;;;3.20;1.13;;;;;;;;;;4979115;28;20031;-75
2022/10/10 14:24:49;;;;;;;2.50;1.10;;;;;;;;;;4976538;28;20027;-75
2022/10/10 14:27:23;;;;;;;2.35;1.15;;;;;;;;;;4979579;28;20018;-74
2022/10/10 14:29:50;;;;;;;2.67;0.60;;;;;;;;;;4974598;28;20077;-74
2022/10/10 14:32:16;;;;;;;2.53;0.88;;;;;;;;;;4987690;28;20170;-75
2022/10/10 14:34:42;;;;;;;1.58;0.50;;;;;;;;;;4972749;28;20037;-75
2022/10/10 14:37:14;;;;;;;3.97;0.60;;;;;;;;;;4972400;28;20070;-75
2022/10/10 14:39:40;;;;;;;3.65;1.05;;;;;;;;;;4995653;28;20023;-75
2022/10/10 14:42:09;;;;;;;2.80;0.70;;;;;;;;;;4972660;28;20055;-75
2022/10/10 14:44:35;;;;;;;3.38;0.80;;;;;;;;;;4972527;28;20050;-75